Time;durP1;ratioP1;P1;durP2;ratioP2;P2;SDS_P1;SDS_P2;PMS_P1;PMS_P2;Temp;Humidity;BMP_temperature;BMP_pressure;BME280_temperature;BME280_humidity;BME280_pressure;Samples;Min_cycle;Max_cycle;Signal;HPM_P1;HPM_P2
2022/07/31 00:01:55;;;;;;;2.67;2.40;;;;;;;;;;10431639;28;20228;-68
2022/07/31 00:06:56;;;;;;;3.97;3.20;;;;;;;;;;10426459;28;20232;-68
2022/07/31 00:11:57;;;;;;;3.80;3.30;;;;;;;;;;10443893;28;20243;-68
2022/07/31 00:16:58;;;;;;;3.97;2.90;;;;;;;;;;10428326;28;20231;-70
2022/07/31 00:21:59;;;;;;;4.37;3.13;;;;;;;;;;10430770;28;20683;-68
2022/07/31 00:27:03;;;;;;;5.30;3.40;;;;;;;;;;10440025;28;20215;-69
2022/07/31 00:32:04;;;;;;;5.03;3.40;;;;;;;;;;10438578;28;20223;-69
2022/07/31 00:37:05;;;;;;;4.13;3.03;;;;;;;;;;10431840;28;20278;-69
2022/07/31 00:42:16;;;;;;;11.37;3.70;;;;;;;;;;10436373;28;20228;-69
2022/07/31 00:47:18;;;;;;;3.70;3.17;;;;;;;;;;10446665;28;20664;-70
2022/07/31 00:52:19;;;;;;;4.00;3.03;;;;;;;;;;10439088;28;20680;-69
2022/07/31 00:57:20;;;;;;;3.80;2.97;;;;;;;;;;10432922;28;20262;-69
2022/07/31 01:02:22;;;;;;;3.60;2.90;;;;;;;;;;10440342;28;20637;-69
2022/07/31 01:07:23;;;;;;;2.73;2.53;;;;;;;;;;10436050;28;20256;-69
2022/07/31 01:12:29;;;;;;;3.23;2.77;;;;;;;;;;10430522;28;20644;-69
2022/07/31 01:17:30;;;;;;;3.87;2.87;;;;;;;;;;10440417;28;20750;-69
2022/07/31 01:22:49;;;;;;;4.43;2.93;;;;;;;;;;10439984;28;20224;-69
2022/07/31 01:28:06;;;;;;;5.47;3.13;;;;;;;;;;10436964;28;20211;-69
2022/07/31 01:33:09;;;;;;;3.53;3.10;;;;;;;;;;10431115;28;20686;-69
2022/07/31 01:38:16;;;;;;;4.30;3.17;;;;;;;;;;10426608;28;20776;-69
2022/07/31 01:43:21;;;;;;;4.07;3.10;;;;;;;;;;10435169;28;20632;-69
2022/07/31 01:48:25;;;;;;;3.63;2.70;;;;;;;;;;10438219;28;20221;-69
2022/07/31 01:53:26;;;;;;;7.50;3.13;;;;;;;;;;10439180;28;20595;-70
2022/07/31 01:58:28;;;;;;;3.23;2.70;;;;;;;;;;10430007;28;20239;-69
2022/07/31 02:03:29;;;;;;;3.83;2.70;;;;;;;;;;10445254;28;20223;-69
2022/07/31 02:08:31;;;;;;;3.00;2.70;;;;;;;;;;10446419;28;20251;-69
2022/07/31 02:13:33;;;;;;;3.77;3.00;;;;;;;;;;10443031;28;20220;-69
2022/07/31 02:18:34;;;;;;;4.50;2.87;;;;;;;;;;10434475;28;20258;-69
2022/07/31 02:23:35;;;;;;;2.80;2.60;;;;;;;;;;10437897;28;20640;-69
2022/07/31 02:28:37;;;;;;;3.27;2.70;;;;;;;;;;10424653;28;20220;-69
2022/07/31 02:33:40;;;;;;;3.43;2.17;;;;;;;;;;10444272;28;20784;-69
2022/07/31 02:38:42;;;;;;;3.87;2.53;;;;;;;;;;10445820;28;20227;-69
2022/07/31 02:43:44;;;;;;;2.67;2.23;;;;;;;;;;10433090;28;20593;-69
2022/07/31 02:48:48;;;;;;;3.50;2.40;;;;;;;;;;10436458;28;20231;-69
2022/07/31 02:53:50;;;;;;;3.23;2.30;;;;;;;;;;10435486;28;20224;-70
2022/07/31 02:58:51;;;;;;;5.50;2.63;;;;;;;;;;10433987;28;20587;-68
2022/07/31 03:03:52;;;;;;;4.47;2.70;;;;;;;;;;10436552;28;20224;-68
2022/07/31 03:08:53;;;;;;;4.43;2.50;;;;;;;;;;10427824;28;20224;-69
2022/07/31 03:13:55;;;;;;;2.93;2.33;;;;;;;;;;10425133;28;20212;-69
2022/07/31 03:19:00;;;;;;;4.23;2.23;;;;;;;;;;10429471;28;20252;-69
2022/07/31 03:24:02;;;;;;;3.53;2.40;;;;;;;;;;10435785;28;20687;-69
2022/07/31 03:29:03;;;;;;;3.87;2.30;;;;;;;;;;10431596;28;20225;-68
2022/07/31 03:34:04;;;;;;;3.60;2.60;;;;;;;;;;10442565;28;20228;-68
2022/07/31 03:39:05;;;;;;;10.07;2.47;;;;;;;;;;10434071;28;20258;-68
2022/07/31 03:44:06;;;;;;;3.87;2.33;;;;;;;;;;10435926;28;20317;-68
2022/07/31 03:49:07;;;;;;;3.00;2.43;;;;;;;;;;10432938;28;20594;-68
2022/07/31 03:54:11;;;;;;;2.73;2.30;;;;;;;;;;10438737;28;20306;-69
2022/07/31 03:59:15;;;;;;;3.57;2.37;;;;;;;;;;10435755;28;20228;-68
2022/07/31 04:04:17;;;;;;;3.00;2.10;;;;;;;;;;10437708;28;20212;-68
2022/07/31 04:09:19;;;;;;;2.80;2.50;;;;;;;;;;10443461;28;20277;-68
2022/07/31 04:14:20;;;;;;;3.30;2.40;;;;;;;;;;10448721;28;20216;-68
2022/07/31 04:19:21;;;;;;;2.73;2.37;;;;;;;;;;10449810;28;20340;-68
2022/07/31 04:24:22;;;;;;;2.90;2.43;;;;;;;;;;10441619;28;20267;-69
2022/07/31 04:29:23;;;;;;;5.10;2.30;;;;;;;;;;10439382;28;20219;-69
2022/07/31 04:34:24;;;;;;;4.60;2.40;;;;;;;;;;10442268;28;20307;-68
2022/07/31 04:39:25;;;;;;;4.57;2.30;;;;;;;;;;10438026;28;20650;-69
2022/07/31 04:44:26;;;;;;;3.53;2.43;;;;;;;;;;10441829;28;20259;-68
2022/07/31 04:49:29;;;;;;;2.63;2.43;;;;;;;;;;10441352;28;20260;-68
2022/07/31 04:54:30;;;;;;;3.00;2.20;;;;;;;;;;10433069;28;20316;-69
2022/07/31 04:59:34;;;;;;;3.10;2.60;;;;;;;;;;10437003;28;20231;-68
2022/07/31 05:04:35;;;;;;;2.53;2.07;;;;;;;;;;10435605;28;20279;-68
2022/07/31 05:09:39;;;;;;;4.97;2.20;;;;;;;;;;10428561;28;20374;-68
2022/07/31 05:14:46;;;;;;;3.57;2.10;;;;;;;;;;10441891;28;20231;-69
2022/07/31 05:19:47;;;;;;;3.60;2.43;;;;;;;;;;10432638;28;20258;-69
2022/07/31 05:24:48;;;;;;;2.87;2.20;;;;;;;;;;10436071;28;20264;-69
2022/07/31 05:29:49;;;;;;;2.27;2.07;;;;;;;;;;10430762;28;20221;-69
2022/07/31 05:34:50;;;;;;;2.03;1.87;;;;;;;;;;10428642;28;20325;-69
2022/07/31 05:39:51;;;;;;;2.80;2.10;;;;;;;;;;10440056;28;20315;-69
2022/07/31 05:44:52;;;;;;;2.50;2.20;;;;;;;;;;10452080;28;20223;-68
2022/07/31 05:49:53;;;;;;;5.97;2.43;;;;;;;;;;10438059;28;20225;-68
2022/07/31 05:54:54;;;;;;;3.17;2.00;;;;;;;;;;10438131;28;20219;-68
2022/07/31 05:59:55;;;;;;;4.27;2.77;;;;;;;;;;10431926;28;20308;-69
2022/07/31 06:04:56;;;;;;;5.47;2.30;;;;;;;;;;10431537;28;20217;-69
2022/07/31 06:09:56;;;;;;;2.93;2.00;;;;;;;;;;10446317;28;20272;-68
2022/07/31 06:14:58;;;;;;;3.87;2.70;;;;;;;;;;10446309;28;20714;-69
2022/07/31 06:19:59;;;;;;;9.50;5.17;;;;;;;;;;10432499;28;20261;-68
2022/07/31 06:25:00;;;;;;;3.83;2.60;;;;;;;;;;10438153;28;20244;-68
2022/07/31 06:30:02;;;;;;;5.37;3.30;;;;;;;;;;10436985;28;20275;-69
2022/07/31 06:35:04;;;;;;;3.53;2.17;;;;;;;;;;10446879;28;20769;-69
2022/07/31 06:40:08;;;;;;;4.50;2.70;;;;;;;;;;10442045;28;20233;-69
2022/07/31 06:45:09;;;;;;;3.40;2.40;;;;;;;;;;10437479;28;20679;-70
2022/07/31 06:50:10;;;;;;;4.87;2.90;;;;;;;;;;10430291;28;20196;-70
2022/07/31 06:55:11;;;;;;;4.97;2.70;;;;;;;;;;10434929;28;20539;-70
2022/07/31 07:00:12;;;;;;;5.13;2.53;;;;;;;;;;10441453;28;20185;-70
2022/07/31 07:05:13;;;;;;;6.07;3.00;;;;;;;;;;10438274;28;20856;-69
2022/07/31 07:10:14;;;;;;;6.10;2.73;;;;;;;;;;10435610;28;20283;-69
2022/07/31 07:15:18;;;;;;;3.77;2.70;;;;;;;;;;10431889;28;20192;-69
2022/07/31 07:20:20;;;;;;;2.63;2.30;;;;;;;;;;10437404;28;20203;-69
2022/07/31 07:25:20;;;;;;;5.53;2.50;;;;;;;;;;10432519;28;20187;-69
2022/07/31 07:30:22;;;;;;;6.23;2.60;;;;;;;;;;10444467;28;20196;-69
2022/07/31 07:35:23;;;;;;;2.53;2.33;;;;;;;;;;10428131;28;20274;-69
2022/07/31 07:40:25;;;;;;;5.23;2.63;;;;;;;;;;10446818;28;20314;-69
2022/07/31 07:45:26;;;;;;;4.33;2.20;;;;;;;;;;10423396;28;20228;-70
2022/07/31 07:50:27;;;;;;;2.93;2.30;;;;;;;;;;10440315;28;20212;-69
2022/07/31 07:55:28;;;;;;;6.47;2.70;;;;;;;;;;10426674;28;20258;-69
2022/07/31 08:00:29;;;;;;;5.37;3.07;;;;;;;;;;10435428;28;20342;-70
2022/07/31 08:05:30;;;;;;;5.10;3.10;;;;;;;;;;10448298;28;20211;-69
2022/07/31 08:10:34;;;;;;;7.60;3.47;;;;;;;;;;10439904;28;20219;-69
2022/07/31 08:15:35;;;;;;;5.87;3.53;;;;;;;;;;10429128;28;20221;-70
2022/07/31 08:20:39;;;;;;;6.47;3.53;;;;;;;;;;10442258;28;20222;-70
2022/07/31 08:25:40;;;;;;;5.90;3.10;;;;;;;;;;10431951;28;20228;-69
2022/07/31 08:30:41;;;;;;;6.33;3.07;;;;;;;;;;10436118;28;20232;-70
2022/07/31 08:35:46;;;;;;;4.73;2.90;;;;;;;;;;10434460;28;20238;-70
2022/07/31 08:40:47;;;;;;;4.90;3.10;;;;;;;;;;10438661;28;20224;-69
2022/07/31 08:45:49;;;;;;;6.40;2.70;;;;;;;;;;10440644;28;20235;-70
2022/07/31 08:50:50;;;;;;;3.00;2.70;;;;;;;;;;10441781;28;20944;-69
2022/07/31 08:55:51;;;;;;;5.27;2.67;;;;;;;;;;10446519;28;20312;-70
2022/07/31 09:00:52;;;;;;;3.33;2.47;;;;;;;;;;10453184;28;20609;-70
2022/07/31 09:05:53;;;;;;;3.20;2.53;;;;;;;;;;10435437;28;20286;-69
2022/07/31 09:11:21;;;;;;;4.20;2.50;;;;;;;;;;10427580;28;20314;-70
2022/07/31 09:16:22;;;;;;;6.07;2.57;;;;;;;;;;10428693;28;20286;-70
2022/07/31 09:21:24;;;;;;;3.83;2.70;;;;;;;;;;10437632;28;20224;-69
2022/07/31 09:26:33;;;;;;;4.00;2.57;;;;;;;;;;10447900;28;20227;-69
2022/07/31 09:31:35;;;;;;;5.90;2.00;;;;;;;;;;10444754;28;20299;-69
2022/07/31 09:36:36;;;;;;;5.00;2.53;;;;;;;;;;10438999;28;20219;-70
2022/07/31 09:41:37;;;;;;;4.80;2.23;;;;;;;;;;10448842;28;20216;-71
2022/07/31 09:46:41;;;;;;;4.23;2.47;;;;;;;;;;10438591;28;20253;-70
2022/07/31 09:51:44;;;;;;;3.70;2.50;;;;;;;;;;10446900;28;20216;-73
2022/07/31 09:56:46;;;;;;;3.87;2.37;;;;;;;;;;10439985;28;20228;-70
2022/07/31 10:01:48;;;;;;;3.17;2.50;;;;;;;;;;10435055;28;20215;-70
2022/07/31 10:06:50;;;;;;;4.40;2.73;;;;;;;;;;10436850;28;20274;-70
2022/07/31 10:11:51;;;;;;;6.07;2.37;;;;;;;;;;10443194;28;20222;-70
2022/07/31 10:16:55;;;;;;;2.67;2.20;;;;;;;;;;10425961;28;20713;-70
2022/07/31 10:22:00;;;;;;;3.57;2.50;;;;;;;;;;10442871;28;20216;-69
2022/07/31 10:27:09;;;;;;;8.63;2.47;;;;;;;;;;10434352;28;20239;-70
2022/07/31 10:32:10;;;;;;;6.23;2.30;;;;;;;;;;10452392;28;20265;-71
2022/07/31 10:37:14;;;;;;;2.40;2.10;;;;;;;;;;10436304;28;20783;-72
2022/07/31 10:42:20;;;;;;;3.00;2.00;;;;;;;;;;10429811;28;20218;-70
2022/07/31 10:47:21;;;;;;;3.30;2.00;;;;;;;;;;10438106;28;20235;-70
2022/07/31 10:52:26;;;;;;;6.00;2.00;;;;;;;;;;10433713;28;20600;-69
2022/07/31 10:57:29;;;;;;;2.20;1.60;;;;;;;;;;10444593;28;20262;-68
2022/07/31 11:02:32;;;;;;;3.20;1.90;;;;;;;;;;10443907;28;20212;-69
2022/07/31 11:07:33;;;;;;;4.33;1.57;;;;;;;;;;10429250;28;20739;-69
2022/07/31 11:12:34;;;;;;;4.03;2.10;;;;;;;;;;10432595;28;20218;-69
2022/07/31 11:17:35;;;;;;;2.73;1.90;;;;;;;;;;10435666;28;20227;-70
2022/07/31 11:22:36;;;;;;;2.43;2.23;;;;;;;;;;10435302;28;20216;-70
2022/07/31 11:27:40;;;;;;;2.53;1.77;;;;;;;;;;10435272;28;20285;-70
2022/07/31 11:32:46;;;;;;;4.83;1.70;;;;;;;;;;10437774;28;20594;-69
2022/07/31 11:37:50;;;;;;;4.13;1.90;;;;;;;;;;10425987;28;20783;-69
2022/07/31 11:42:51;;;;;;;5.93;2.10;;;;;;;;;;10440007;28;20643;-69
2022/07/31 11:47:52;;;;;;;3.93;2.27;;;;;;;;;;10440295;28;20211;-70
2022/07/31 11:53:01;;;;;;;5.10;2.03;;;;;;;;;;10455521;28;20220;-71
2022/07/31 11:58:08;;;;;;;3.90;1.57;;;;;;;;;;10439063;28;20247;-69
2022/07/31 12:03:09;;;;;;;3.73;1.70;;;;;;;;;;10433155;28;20593;-70
2022/07/31 12:08:11;;;;;;;3.07;2.10;;;;;;;;;;10437465;28;20227;-72
2022/07/31 12:13:13;;;;;;;2.30;2.10;;;;;;;;;;10434359;28;20247;-70
2022/07/31 12:18:20;;;;;;;2.60;2.20;;;;;;;;;;10440713;28;20299;-70
2022/07/31 12:23:21;;;;;;;3.37;2.00;;;;;;;;;;10450512;28;20284;-68
2022/07/31 12:28:22;;;;;;;4.13;2.37;;;;;;;;;;10443429;28;20224;-71
2022/07/31 12:33:23;;;;;;;2.53;2.10;;;;;;;;;;10439612;28;20212;-70
2022/07/31 12:38:27;;;;;;;3.73;2.07;;;;;;;;;;10440192;28;20235;-69
2022/07/31 12:43:28;;;;;;;5.40;2.17;;;;;;;;;;10435451;28;20222;-69
2022/07/31 12:48:29;;;;;;;4.93;2.30;;;;;;;;;;10442283;28;20247;-70
2022/07/31 12:53:30;;;;;;;7.53;2.30;;;;;;;;;;10446519;28;20623;-70
2022/07/31 12:58:31;;;;;;;5.23;1.90;;;;;;;;;;10444724;28;20284;-70
2022/07/31 13:03:32;;;;;;;4.80;2.30;;;;;;;;;;10447943;28;20243;-71
2022/07/31 13:08:33;;;;;;;2.97;1.80;;;;;;;;;;10441351;28;20232;-70
2022/07/31 13:13:34;;;;;;;2.00;1.80;;;;;;;;;;10439715;28;20382;-70
2022/07/31 13:18:36;;;;;;;4.67;1.80;;;;;;;;;;10425635;28;20228;-70
2022/07/31 13:23:37;;;;;;;3.43;1.83;;;;;;;;;;10439487;28;20303;-71
2022/07/31 13:28:38;;;;;;;3.20;2.00;;;;;;;;;;10433283;28;20672;-70
2022/07/31 13:33:39;;;;;;;1.63;1.50;;;;;;;;;;10445433;28;20285;-70
2022/07/31 13:38:40;;;;;;;5.83;1.60;;;;;;;;;;10448976;28;20220;-70
2022/07/31 13:43:41;;;;;;;3.17;1.83;;;;;;;;;;10438027;28;20227;-71
2022/07/31 13:48:43;;;;;;;5.83;1.53;;;;;;;;;;10446428;28;20223;-71
2022/07/31 13:53:44;;;;;;;3.93;1.60;;;;;;;;;;10440799;28;20223;-70
2022/07/31 13:58:45;;;;;;;3.17;1.63;;;;;;;;;;10445740;28;20307;-70
2022/07/31 14:03:46;;;;;;;3.30;1.70;;;;;;;;;;10447272;28;20227;-70
2022/07/31 14:08:47;;;;;;;8.20;1.90;;;;;;;;;;10444683;28;20306;-70
2022/07/31 14:13:48;;;;;;;3.67;1.70;;;;;;;;;;10442702;28;20278;-71
2022/07/31 14:18:49;;;;;;;18.87;2.63;;;;;;;;;;10428233;28;20225;-70
2022/07/31 14:23:50;;;;;;;2.77;1.40;;;;;;;;;;10441999;28;20287;-70
2022/07/31 14:28:51;;;;;;;2.03;1.67;;;;;;;;;;10426704;28;20265;-70
2022/07/31 14:33:54;;;;;;;3.07;1.50;;;;;;;;;;10434973;28;20212;-70
2022/07/31 14:38:55;;;;;;;3.83;1.70;;;;;;;;;;10425399;28;20237;-70
2022/07/31 14:43:56;;;;;;;2.53;1.43;;;;;;;;;;10438488;28;20598;-72
2022/07/31 14:48:58;;;;;;;3.50;1.77;;;;;;;;;;10442230;28;20252;-70
2022/07/31 14:54:00;;;;;;;2.67;1.60;;;;;;;;;;10435025;28;20225;-70
2022/07/31 14:59:00;;;;;;;1.93;1.70;;;;;;;;;;10434486;28;20713;-70
2022/07/31 15:04:01;;;;;;;4.73;1.63;;;;;;;;;;10439800;28;20345;-69
2022/07/31 15:09:04;;;;;;;2.87;2.00;;;;;;;;;;10428059;28;20335;-69
2022/07/31 15:14:05;;;;;;;4.30;2.00;;;;;;;;;;10437801;28;20220;-70
2022/07/31 15:19:06;;;;;;;3.40;2.07;;;;;;;;;;10431656;28;20231;-69
2022/07/31 15:24:07;;;;;;;1.80;1.70;;;;;;;;;;10435207;28;20243;-69
2022/07/31 15:29:08;;;;;;;2.07;1.60;;;;;;;;;;10438280;28;20228;-70
2022/07/31 15:34:09;;;;;;;2.20;1.57;;;;;;;;;;10435981;28;20266;-71
2022/07/31 15:39:10;;;;;;;4.23;1.57;;;;;;;;;;10675840;22;20321;-72
2022/07/31 15:44:11;;;;;;;3.10;1.70;;;;;;;;;;10316769;28;20225;-71
2022/07/31 15:49:12;;;;;;;9.03;2.00;;;;;;;;;;10312836;28;20767;-70
2022/07/31 15:54:13;;;;;;;1.80;1.70;;;;;;;;;;10328605;28;20316;-72
2022/07/31 15:59:14;;;;;;;1.87;1.57;;;;;;;;;;10329595;28;20316;-70
2022/07/31 16:04:15;;;;;;;2.80;1.70;;;;;;;;;;10366548;23;20292;-69
2022/07/31 16:09:22;;;;;;;5.70;1.63;;;;;;;;;;10365136;28;20252;-70
2022/07/31 16:14:23;;;;;;;4.37;1.70;;;;;;;;;;10396053;23;20357;-71
2022/07/31 16:19:24;;;;;;;3.27;2.07;;;;;;;;;;10438433;28;20223;-70
2022/07/31 16:24:26;;;;;;;4.67;1.80;;;;;;;;;;10486985;22;20631;-70
2022/07/31 16:29:27;;;;;;;2.43;1.30;;;;;;;;;;10727282;22;20247;-73
2022/07/31 16:39:34;;;;;;;2.20;1.73;;;;;;;;;;10688209;23;20240;-71
2022/07/31 16:44:38;;;;;;;3.30;1.60;;;;;;;;;;10400503;28;20227;-71
2022/07/31 16:49:40;;;;;;;1.67;1.10;;;;;;;;;;10387730;28;20238;-69
2022/07/31 16:54:41;;;;;;;1.73;1.50;;;;;;;;;;10405863;28;20216;-71
2022/07/31 16:59:42;;;;;;;2.43;1.73;;;;;;;;;;10407191;28;20721;-71
2022/07/31 17:04:44;;;;;;;4.03;1.60;;;;;;;;;;10407461;28;20569;-69
2022/07/31 17:09:45;;;;;;;1.67;1.57;;;;;;;;;;10402243;28;20596;-71
2022/07/31 17:14:54;;;;;;;3.40;1.50;;;;;;;;;;10384367;28;20224;-70
2022/07/31 17:20:05;;;;;;;3.13;1.70;;;;;;;;;;10399459;28;20233;-70
2022/07/31 17:25:07;;;;;;;7.73;1.97;;;;;;;;;;10396756;28;20240;-72
2022/07/31 17:30:08;;;;;;;1.60;1.50;;;;;;;;;;10397268;28;20279;-73
2022/07/31 17:35:20;;;;;;;2.20;1.60;;;;;;;;;;10410684;28;20185;-73
2022/07/31 17:40:22;;;;;;;1.77;1.30;;;;;;;;;;10397352;28;20222;-72
2022/07/31 17:45:26;;;;;;;2.47;1.70;;;;;;;;;;10385413;28;20247;-68
2022/07/31 17:50:27;;;;;;;2.97;1.70;;;;;;;;;;10391347;28;20769;-70
2022/07/31 17:55:35;;;;;;;3.20;1.67;;;;;;;;;;10392395;28;20220;-70
2022/07/31 18:00:36;;;;;;;2.80;1.50;;;;;;;;;;10392321;28;20852;-70
2022/07/31 18:05:37;;;;;;;2.90;1.47;;;;;;;;;;10405219;28;20220;-73
2022/07/31 18:10:42;;;;;;;2.73;1.70;;;;;;;;;;10401809;28;20216;-73
2022/07/31 18:15:43;;;;;;;3.20;1.70;;;;;;;;;;10404907;28;20675;-73
2022/07/31 18:20:44;;;;;;;4.57;1.60;;;;;;;;;;10397260;28;20247;-73
2022/07/31 18:25:46;;;;;;;3.07;1.60;;;;;;;;;;10392515;28;20341;-74
2022/07/31 18:30:47;;;;;;;3.53;1.57;;;;;;;;;;10404584;28;20303;-72
2022/07/31 18:35:48;;;;;;;2.17;1.60;;;;;;;;;;10404725;28;20220;-73
2022/07/31 18:40:49;;;;;;;12.43;4.87;;;;;;;;;;10408742;28;20303;-73
2022/07/31 18:45:50;;;;;;;13.77;4.77;;;;;;;;;;10405164;28;20331;-66
2022/07/31 18:50:53;;;;;;;13.53;5.83;;;;;;;;;;10403284;28;20299;-66
2022/07/31 18:56:03;;;;;;;3.37;2.17;;;;;;;;;;10404058;28;20215;-71
2022/07/31 19:01:04;;;;;;;12.83;3.67;;;;;;;;;;10387555;28;20216;-72
2022/07/31 19:06:05;;;;;;;5.67;2.33;;;;;;;;;;10404096;28;20232;-74
2022/07/31 19:11:11;;;;;;;7.90;2.70;;;;;;;;;;10385746;28;20216;-72
2022/07/31 19:16:13;;;;;;;2.97;2.40;;;;;;;;;;10410567;28;20251;-72
2022/07/31 19:21:14;;;;;;;4.70;2.03;;;;;;;;;;10400604;28;20218;-73
2022/07/31 19:26:15;;;;;;;4.77;2.03;;;;;;;;;;10401890;28;20220;-75
2022/07/31 19:31:16;;;;;;;4.53;2.03;;;;;;;;;;10384815;28;20219;-72
2022/07/31 19:36:17;;;;;;;3.87;2.13;;;;;;;;;;10400589;28;20310;-72
2022/07/31 19:41:19;;;;;;;2.87;1.77;;;;;;;;;;10402230;28;20306;-73
2022/07/31 19:46:20;;;;;;;5.17;2.20;;;;;;;;;;10394263;28;20305;-71
2022/07/31 19:51:21;;;;;;;3.20;2.00;;;;;;;;;;10393880;28;20861;-71
2022/07/31 19:56:23;;;;;;;3.40;2.27;;;;;;;;;;10392793;28;20317;-72
2022/07/31 20:01:25;;;;;;;3.83;2.20;;;;;;;;;;10402469;28;20222;-70
2022/07/31 20:06:26;;;;;;;4.23;2.00;;;;;;;;;;10401773;28;20219;-71
2022/07/31 20:11:27;;;;;;;4.30;2.27;;;;;;;;;;10400750;28;20669;-71
2022/07/31 20:16:28;;;;;;;2.23;2.03;;;;;;;;;;10400615;28;20278;-70
2022/07/31 20:21:31;;;;;;;4.77;2.07;;;;;;;;;;10402471;28;20242;-70
2022/07/31 20:26:35;;;;;;;3.30;1.90;;;;;;;;;;10401087;28;20227;-72
2022/07/31 20:31:38;;;;;;;3.87;2.20;;;;;;;;;;10400366;28;20223;-71
2022/07/31 20:36:39;;;;;;;5.60;2.40;;;;;;;;;;10405191;28;20232;-69
2022/07/31 20:41:40;;;;;;;2.60;2.00;;;;;;;;;;10399918;28;20221;-70
2022/07/31 20:46:41;;;;;;;7.30;2.63;;;;;;;;;;10407061;28;20231;-70
2022/07/31 20:51:42;;;;;;;4.80;2.60;;;;;;;;;;10405661;28;20224;-67
2022/07/31 20:56:43;;;;;;;2.63;1.87;;;;;;;;;;10391289;28;20236;-70
2022/07/31 21:01:44;;;;;;;2.83;2.00;;;;;;;;;;10401137;28;20425;-72
2022/07/31 21:06:45;;;;;;;5.30;2.00;;;;;;;;;;10395161;28;20219;-70
2022/07/31 21:11:49;;;;;;;3.57;2.10;;;;;;;;;;10394613;28;20313;-71
2022/07/31 21:16:50;;;;;;;3.43;1.60;;;;;;;;;;10400099;28;20587;-74
2022/07/31 21:21:51;;;;;;;2.87;2.00;;;;;;;;;;10409635;28;20273;-71
2022/07/31 21:26:58;;;;;;;3.23;1.77;;;;;;;;;;10408287;28;20231;-74
2022/07/31 21:32:02;;;;;;;2.20;2.00;;;;;;;;;;10404205;28;20598;-72
2022/07/31 21:37:06;;;;;;;2.73;2.13;;;;;;;;;;10402094;28;20223;-73
2022/07/31 21:42:08;;;;;;;5.30;2.20;;;;;;;;;;10408741;28;20224;-70
2022/07/31 21:47:15;;;;;;;3.03;2.03;;;;;;;;;;10395849;28;20279;-69
2022/07/31 21:52:16;;;;;;;2.20;2.00;;;;;;;;;;10411877;28;20221;-69
2022/07/31 21:57:17;;;;;;;2.17;2.07;;;;;;;;;;10401959;28;20599;-69
2022/07/31 22:02:18;;;;;;;4.57;2.03;;;;;;;;;;10403539;28;20221;-71
2022/07/31 22:07:31;;;;;;;3.97;2.00;;;;;;;;;;10395303;28;20753;-72
2022/07/31 22:12:33;;;;;;;3.33;2.03;;;;;;;;;;10399567;28;20232;-71
2022/07/31 22:17:34;;;;;;;2.30;2.10;;;;;;;;;;10401737;28;20217;-71
2022/07/31 22:22:36;;;;;;;2.73;2.40;;;;;;;;;;10402242;28;20703;-71
2022/07/31 22:27:54;;;;;;;7.90;2.83;;;;;;;;;;10401577;28;20216;-71
2022/07/31 22:32:57;;;;;;;10.87;4.13;;;;;;;;;;10388027;28;20229;-71
2022/07/31 22:37:58;;;;;;;5.77;2.93;;;;;;;;;;10395938;28;20843;-72
2022/07/31 22:43:00;;;;;;;4.70;3.33;;;;;;;;;;10397674;28;20376;-71
2022/07/31 22:48:01;;;;;;;2.47;2.23;;;;;;;;;;10393302;28;20326;-69
2022/07/31 22:53:02;;;;;;;2.77;2.30;;;;;;;;;;10398624;28;20231;-70
2022/07/31 22:58:03;;;;;;;2.20;1.97;;;;;;;;;;10395220;28;20228;-70
2022/07/31 23:03:04;;;;;;;3.03;1.97;;;;;;;;;;10394420;28;20218;-70
2022/07/31 23:08:05;;;;;;;2.97;2.20;;;;;;;;;;10392539;28;20235;-70
2022/07/31 23:13:06;;;;;;;2.87;2.10;;;;;;;;;;10394270;28;20229;-71
2022/07/31 23:18:07;;;;;;;2.23;2.10;;;;;;;;;;10387927;28;20227;-73
2022/07/31 23:23:08;;;;;;;2.40;2.20;;;;;;;;;;10400660;28;20664;-71
2022/07/31 23:28:09;;;;;;;2.80;2.20;;;;;;;;;;10393741;28;20698;-72
2022/07/31 23:33:11;;;;;;;3.63;1.97;;;;;;;;;;10405614;28;20702;-72
2022/07/31 23:38:12;;;;;;;2.20;2.00;;;;;;;;;;10387546;28;20233;-70
2022/07/31 23:43:13;;;;;;;2.80;2.20;;;;;;;;;;10396510;28;20271;-72
2022/07/31 23:48:14;;;;;;;3.77;2.30;;;;;;;;;;10387485;28;20278;-71
2022/07/31 23:53:15;;;;;;;2.43;2.03;;;;;;;;;;10395431;28;20221;-70
2022/07/31 23:58:16;;;;;;;2.03;1.83;;;;;;;;;;10404224;28;20220;-71
